createdAt,value
2022-12-23T00:02:02.476Z,96864.31
2022-12-23T00:04:31.398Z,96859.81
2022-12-23T00:06:58.824Z,96870.88
2022-12-23T00:09:26.293Z,96870.91
2022-12-23T00:12:07.722Z,96859.56
2022-12-23T00:14:52.855Z,96860.81
2022-12-23T00:17:23.542Z,96860.63
2022-12-23T00:19:52.441Z,96857.56
2022-12-23T00:22:19.820Z,96856.50
2022-12-23T00:24:47.273Z,96853.63
2022-12-23T00:27:14.722Z,96849.97
2022-12-23T00:29:42.150Z,96853.88
2022-12-23T00:32:09.689Z,96846.72
2022-12-23T00:34:37.203Z,96848.72
2022-12-23T00:37:05.990Z,96852.88
2022-12-23T00:39:54.740Z,96853.47
2022-12-23T00:42:36.533Z,96853.66
2022-12-23T00:45:15.726Z,96846.72
2022-12-23T00:48:01.599Z,96850.75
2022-12-23T00:50:29.622Z,96845.84
2022-12-23T00:52:58.940Z,96841.53
2022-12-23T00:55:26.425Z,96846.66
2022-12-23T00:57:53.918Z,96840.53
2022-12-23T01:00:41.948Z,96831.28
2022-12-23T01:03:29.809Z,96831.06
2022-12-23T01:05:58.878Z,96827.63
2022-12-23T01:08:28.207Z,96825.16
2022-12-23T01:10:56.032Z,96817.38
2022-12-23T01:13:23.859Z,96818.16
2022-12-23T01:15:51.359Z,96828.41
2022-12-23T01:18:18.876Z,96827.44
2022-12-23T01:20:46.521Z,96823.72
2022-12-23T01:23:13.938Z,96830.06
2022-12-23T01:25:42.725Z,96834.16
2022-12-23T01:28:10.057Z,96828.22
2022-12-23T01:30:38.592Z,96830.66
2022-12-23T01:33:06.120Z,96837.06
2022-12-23T01:35:33.582Z,96837.66
2022-12-23T01:38:01.741Z,96830.22
2022-12-23T01:40:29.179Z,96819.78
2022-12-23T01:42:56.997Z,96824.47
2022-12-23T01:45:29.232Z,96825.72
2022-12-23T01:47:59.113Z,96813.00
2022-12-23T01:50:30.965Z,96816.31
2022-12-23T01:53:07.861Z,96815.53
2022-12-23T01:55:39.756Z,96820.41
2022-12-23T01:58:12.972Z,96822.88
2022-12-23T02:00:59.711Z,96826.75
2022-12-23T02:03:45.721Z,96830.66
2022-12-23T02:06:36.558Z,96831.47
2022-12-23T02:09:19.962Z,96833.88
2022-12-23T02:12:35.633Z,96834.13
2022-12-23T02:15:31.696Z,96833.91
2022-12-23T02:18:15.748Z,96839.63
2022-12-23T02:21:10.837Z,96829.91
2022-12-23T02:24:11.826Z,96834.22
2022-12-23T02:27:01.174Z,96832.47
2022-12-23T02:30:14.513Z,96834.44
2022-12-23T02:33:08.219Z,96828.72
2022-12-23T02:35:44.415Z,96827.66
2022-12-23T02:38:16.011Z,96827.47
2022-12-23T02:40:54.660Z,96822.75
2022-12-23T02:43:30.722Z,96829.06
2022-12-23T02:46:01.682Z,96824.78
2022-12-23T02:48:34.327Z,96826.63
2022-12-23T02:51:03.071Z,96823.13
2022-12-23T02:53:32.599Z,96827.88
2022-12-23T02:56:02.893Z,96817.66
2022-12-23T02:58:33.446Z,96818.22
2022-12-23T03:01:03.214Z,96819.25
2022-12-23T03:03:33.071Z,96815.56
2022-12-23T03:06:00.602Z,96817.66
2022-12-23T03:08:32.662Z,96815.72
2022-12-23T03:11:05.630Z,96817.53
2022-12-23T03:13:54.725Z,96823.31
2022-12-23T03:16:25.384Z,96814.47
2022-12-23T03:19:07.296Z,96819.06
2022-12-23T03:21:41.829Z,96820.63
2022-12-23T03:24:22.212Z,96822.69
2022-12-23T03:26:54.708Z,96821.44
2022-12-23T03:29:27.727Z,96819.19
2022-12-23T03:31:58.480Z,96829.47
2022-12-23T03:34:31.130Z,96833.81
2022-12-23T03:37:03.041Z,96832.41
2022-12-23T03:39:35.438Z,96828.06
2022-12-23T03:42:13.279Z,96829.97
2022-12-23T03:45:10.764Z,96842.50
2022-12-23T03:47:39.380Z,96843.56
2022-12-23T03:50:12.461Z,96842.31
2022-12-23T03:52:43.478Z,96842.97
2022-12-23T03:55:21.600Z,96848.72
2022-12-23T03:57:56.719Z,96840.28
2022-12-23T04:00:28.703Z,96849.13
2022-12-23T04:03:00.406Z,96842.97
2022-12-23T04:05:34.667Z,96841.75
2022-12-23T04:08:10.141Z,96852.63
2022-12-23T04:10:38.150Z,96840.94
2022-12-23T04:13:05.860Z,96852.88
2022-12-23T04:15:33.670Z,96852.41
2022-12-23T04:18:01.130Z,96854.06
2022-12-23T04:20:29.924Z,96855.91
2022-12-23T04:22:57.234Z,96859.41
2022-12-23T04:25:24.752Z,96867.63
2022-12-23T04:27:52.233Z,96863.91
2022-12-23T04:30:19.993Z,96867.00
2022-12-23T04:32:47.513Z,96861.88
2022-12-23T04:35:14.942Z,96865.38
2022-12-23T04:37:43.764Z,96858.63
2022-12-23T04:40:11.544Z,96863.53
2022-12-23T04:42:38.996Z,96865.81
2022-12-23T04:45:07.459Z,96867.47
2022-12-23T04:47:35.454Z,96870.50
2022-12-23T04:50:02.999Z,96870.31
2022-12-23T04:52:30.457Z,96872.16
2022-12-23T04:54:59.257Z,96881.59
2022-12-23T04:57:28.761Z,96881.22
2022-12-23T04:59:56.208Z,96882.03
2022-12-23T05:02:23.896Z,96883.53
2022-12-23T05:04:51.431Z,96887.41
2022-12-23T05:07:18.930Z,96882.31
2022-12-23T05:09:46.392Z,96892.22
2022-12-23T05:12:15.212Z,96893.84
2022-12-23T05:14:42.654Z,96906.34
2022-12-23T05:17:10.115Z,96908.22
2022-12-23T05:19:38.603Z,96909.25
2022-12-23T05:22:06.063Z,96925.91
2022-12-23T05:24:33.488Z,96908.69
2022-12-23T05:27:00.951Z,96913.22
2022-12-23T05:29:29.860Z,96913.16
2022-12-23T05:31:57.538Z,96917.91
2022-12-23T05:34:25.000Z,96919.50
2022-12-23T05:36:52.501Z,96916.88
2022-12-23T05:39:19.945Z,96925.66
2022-12-23T05:41:47.375Z,96918.50
2022-12-23T05:44:14.991Z,96917.06
2022-12-23T05:46:43.842Z,96920.16
2022-12-23T05:49:11.343Z,96928.16
2022-12-23T05:51:38.785Z,96936.16
2022-12-23T05:54:06.330Z,96933.28
2022-12-23T05:56:33.780Z,96936.44
2022-12-23T05:59:01.229Z,96942.75
2022-12-23T06:01:28.821Z,96942.81
2022-12-23T06:03:57.798Z,96952.91
2022-12-23T06:06:25.288Z,96958.19
2022-12-23T06:08:57.618Z,96962.75
2022-12-23T06:11:27.183Z,96965.59
2022-12-23T06:13:54.649Z,96959.25
2022-12-23T06:16:22.243Z,96959.91
2022-12-23T06:18:49.793Z,96973.63
2022-12-23T06:21:18.699Z,96976.28
2022-12-23T06:23:46.151Z,96972.84
2022-12-23T06:26:13.619Z,96986.78
2022-12-23T06:28:41.092Z,96987.56
2022-12-23T06:31:08.578Z,96979.13
2022-12-23T06:33:36.108Z,96987.41
2022-12-23T06:36:03.557Z,96983.69
2022-12-23T06:38:32.452Z,96989.94
2022-12-23T06:41:00.115Z,96996.88
2022-12-23T06:43:27.551Z,96997.06
2022-12-23T06:45:55.206Z,96999.06
2022-12-23T06:48:22.692Z,97008.56
2022-12-23T06:50:50.150Z,97007.13
2022-12-23T06:53:17.642Z,97013.25
2022-12-23T06:55:46.782Z,97009.81
2022-12-23T06:58:14.252Z,97013.28
2022-12-23T07:00:41.682Z,97020.56
2022-12-23T07:03:09.370Z,97026.31
2022-12-23T07:05:37.852Z,97033.03
2022-12-23T07:08:05.894Z,97032.00
2022-12-23T07:10:34.584Z,97034.34
2022-12-23T07:13:03.561Z,97034.72
2022-12-23T07:15:31.048Z,97047.06
2022-12-23T07:17:58.543Z,97043.78
2022-12-23T07:20:25.976Z,97046.38
2022-12-23T07:22:55.357Z,97046.19
2022-12-23T07:25:22.915Z,97044.31
2022-12-23T07:27:53.975Z,97045.53
2022-12-23T07:30:22.957Z,97051.47
2022-12-23T07:32:51.008Z,97059.66
2022-12-23T07:35:18.905Z,97060.91
2022-12-23T07:37:46.412Z,97058.63
2022-12-23T07:40:14.786Z,97072.81
2022-12-23T07:42:45.631Z,97063.38
2022-12-23T07:45:13.870Z,97066.06
2022-12-23T07:47:42.878Z,97060.25
2022-12-23T07:50:10.753Z,97063.16
2022-12-23T07:52:38.572Z,97057.41
2022-12-23T07:55:07.264Z,97051.50
2022-12-23T07:57:37.595Z,97053.50
2022-12-23T08:00:07.031Z,97045.13
2022-12-23T08:02:34.671Z,97052.53
2022-12-23T08:05:03.717Z,97052.53
2022-12-23T08:07:31.227Z,97053.13
2022-12-23T08:09:58.671Z,97055.63
2022-12-23T08:12:26.659Z,97055.41
2022-12-23T08:14:54.188Z,97063.66
2022-12-23T08:17:21.825Z,97052.00
2022-12-23T08:19:49.706Z,97050.47
2022-12-23T08:22:18.751Z,97051.16
2022-12-23T08:24:46.639Z,97054.47
2022-12-23T08:27:14.223Z,97061.06
2022-12-23T08:29:41.726Z,97064.50
2022-12-23T08:32:09.656Z,97072.53
2022-12-23T08:34:37.646Z,97087.50
2022-12-23T08:37:05.229Z,97092.31
2022-12-23T08:39:34.051Z,97098.44
2022-12-23T08:42:01.531Z,97103.00
2022-12-23T08:44:29.730Z,97108.50
2022-12-23T08:46:57.499Z,97110.97
2022-12-23T08:49:25.074Z,97111.81
2022-12-23T08:51:52.867Z,97114.31
2022-12-23T08:54:20.531Z,97107.47
2022-12-23T08:56:49.350Z,97110.75
2022-12-23T08:59:19.431Z,97105.63
2022-12-23T09:01:48.277Z,97102.56
2022-12-23T09:04:16.028Z,97087.66
2022-12-23T09:06:44.292Z,97087.19
2022-12-23T09:09:16.275Z,97090.28
2022-12-23T09:11:43.997Z,97088.03
2022-12-23T09:14:13.144Z,97087.97
2022-12-23T09:16:42.268Z,97091.75
2022-12-23T09:19:09.889Z,97087.66
2022-12-23T09:21:37.654Z,97085.63
2022-12-23T09:24:05.729Z,97084.16
2022-12-23T09:26:33.259Z,97089.75
2022-12-23T09:29:01.007Z,97090.53
2022-12-23T09:31:36.277Z,97094.22
2022-12-23T09:34:05.044Z,97088.69
2022-12-23T09:36:32.630Z,97090.34
2022-12-23T09:39:00.428Z,97084.56
2022-12-23T09:41:42.672Z,97080.66
2022-12-23T09:44:29.043Z,97078.97
2022-12-23T09:47:02.958Z,97072.81
2022-12-23T09:49:30.416Z,97070.97
2022-12-23T09:52:03.673Z,97065.22
2022-12-23T09:54:41.473Z,97062.53
2022-12-23T09:57:19.417Z,97070.75
2022-12-23T09:59:58.496Z,97079.00
2022-12-23T10:02:40.393Z,97071.41
2022-12-23T10:05:20.868Z,97080.66
2022-12-23T10:07:52.482Z,97089.09
2022-12-23T10:10:29.915Z,97086.84
2022-12-23T10:13:00.898Z,97095.94
2022-12-23T10:15:33.643Z,97100.44
2022-12-23T10:18:07.100Z,97093.03
2022-12-23T10:20:40.527Z,97077.56
2022-12-23T10:23:14.557Z,97068.81
2022-12-23T10:25:49.710Z,97064.44
2022-12-23T10:28:17.156Z,97063.81
2022-12-23T10:31:11.115Z,97067.72
2022-12-23T10:34:04.344Z,97070.63
2022-12-23T10:37:05.206Z,97068.13
2022-12-23T10:39:56.617Z,97069.56
2022-12-23T10:42:52.689Z,97073.69
2022-12-23T10:45:46.534Z,97062.19
2022-12-23T10:48:23.777Z,97060.53
2022-12-23T10:50:59.646Z,97065.28
2022-12-23T10:53:40.433Z,97073.53
2022-12-23T10:56:09.418Z,97083.38
2022-12-23T10:58:41.563Z,97071.06
2022-12-23T11:01:22.082Z,97067.38
2022-12-23T11:04:00.332Z,97050.75
2022-12-23T11:06:34.837Z,97051.09
2022-12-23T11:09:05.252Z,97048.69
2022-12-23T11:11:56.470Z,97043.50
2022-12-23T11:14:36.483Z,97034.91
2022-12-23T11:17:18.224Z,97032.84
2022-12-23T11:19:45.704Z,97034.69
2022-12-23T11:22:23.561Z,97031.19
2022-12-23T11:24:51.466Z,97031.19
2022-12-23T11:27:19.210Z,97024.22
2022-12-23T11:29:50.098Z,97029.97
2022-12-23T11:35:35.228Z,97025.84
2022-12-23T11:38:14.831Z,97023.19
2022-12-23T11:40:58.884Z,97012.03
2022-12-23T11:44:00.185Z,97006.72
2022-12-23T11:46:47.109Z,97004.03
2022-12-23T11:49:20.243Z,96997.84
2022-12-23T11:51:50.001Z,97000.72
2022-12-23T11:54:20.072Z,96988.81
2022-12-23T11:56:52.242Z,96983.84
2022-12-23T11:59:29.478Z,96985.09
2022-12-23T12:01:59.590Z,96984.47
2022-12-23T12:04:33.367Z,96984.06
2022-12-23T12:07:02.661Z,96982.25
2022-12-23T12:09:31.948Z,96986.31
2022-12-23T12:12:05.398Z,96972.31
2022-12-23T12:14:41.836Z,96966.19
2022-12-23T12:17:19.377Z,96962.44
2022-12-23T12:19:59.984Z,96963.06
2022-12-23T12:22:35.584Z,96961.81
2022-12-23T12:25:15.241Z,96955.91
2022-12-23T12:27:45.919Z,96957.34
2022-12-23T12:30:18.864Z,96954.66
2022-12-23T12:32:58.781Z,96954.22
2022-12-23T12:35:37.674Z,96948.50
2022-12-23T12:38:15.237Z,96946.00
2022-12-23T12:40:49.610Z,96948.25
2022-12-23T12:43:25.509Z,96933.03
2022-12-23T12:46:08.830Z,96932.41
2022-12-23T12:48:47.150Z,96926.25
2022-12-23T12:51:26.205Z,96924.19
2022-12-23T12:54:05.689Z,96929.94
2022-12-23T12:56:41.680Z,96929.13
2022-12-23T12:59:18.893Z,96931.81
2022-12-23T13:02:11.897Z,96931.59
2022-12-23T13:05:09.357Z,96929.94
2022-12-23T13:07:47.980Z,96925.41
2022-12-23T13:10:29.181Z,96925.81
2022-12-23T13:13:03.610Z,96915.97
2022-12-23T13:15:35.143Z,96916.19
2022-12-23T13:18:20.599Z,96908.56
2022-12-23T13:20:56.406Z,96892.69
2022-12-23T13:23:44.768Z,96891.91
2022-12-23T13:26:24.345Z,96882.84
2022-12-23T13:29:04.813Z,96876.66
2022-12-23T13:31:43.122Z,96871.13
2022-12-23T13:34:30.337Z,96849.31
2022-12-23T13:37:08.751Z,96851.56
2022-12-23T13:39:50.516Z,96851.56
2022-12-23T13:42:26.117Z,96849.94
2022-12-23T13:44:55.164Z,96850.53
2022-12-23T13:47:30.370Z,96846.25
2022-12-23T13:50:06.734Z,96843.94
2022-12-23T13:52:47.553Z,96842.31
2022-12-23T13:55:38.490Z,96830.56
2022-12-23T13:58:12.485Z,96835.13
2022-12-23T14:00:40.993Z,96837.19
2022-12-23T14:03:23.308Z,96838.19
2022-12-23T14:05:52.347Z,96832.03
2022-12-23T14:08:25.800Z,96824.81
2022-12-23T14:10:58.493Z,96823.59
2022-12-23T14:13:28.787Z,96825.66
2022-12-23T14:16:24.274Z,96820.28
2022-12-23T14:19:16.809Z,96818.03
2022-12-23T14:21:51.912Z,96811.44
2022-12-23T14:24:45.123Z,96807.75
2022-12-23T14:27:37.370Z,96806.13
2022-12-23T14:30:15.153Z,96800.53
2022-12-23T14:32:50.975Z,96786.16
2022-12-23T14:35:28.631Z,96785.75
2022-12-23T14:38:21.075Z,96787.19
2022-12-23T14:41:23.914Z,96781.44
2022-12-23T14:43:56.587Z,96775.69
2022-12-23T14:46:56.586Z,96780.41
2022-12-23T14:49:40.675Z,96777.09
2022-12-23T14:52:49.892Z,96771.38
2022-12-23T14:55:43.199Z,96759.22
2022-12-23T14:58:40.703Z,96751.59
2022-12-23T15:01:16.235Z,96751.59
2022-12-23T15:03:48.753Z,96741.72
2022-12-23T15:06:20.059Z,96739.28
2022-12-23T15:08:51.693Z,96748.91
2022-12-23T15:11:26.073Z,96741.94
2022-12-23T15:13:55.880Z,96746.22
2022-12-23T15:16:32.465Z,96747.28
2022-12-23T15:19:03.064Z,96741.13
2022-12-23T15:21:33.321Z,96739.03
2022-12-23T15:24:00.978Z,96723.41
2022-12-23T15:26:32.393Z,96713.31
2022-12-23T15:29:01.467Z,96717.03
2022-12-23T15:31:36.651Z,96714.53
2022-12-23T15:34:15.036Z,96719.09
2022-12-23T15:36:45.267Z,96716.22
2022-12-23T15:39:20.012Z,96712.28
2022-12-23T15:41:48.968Z,96710.03
2022-12-23T15:44:20.476Z,96713.53
2022-12-23T15:46:50.362Z,96697.69
2022-12-23T15:49:20.149Z,96689.03
2022-12-23T15:52:08.003Z,96691.91
2022-12-23T15:54:41.343Z,96688.16
2022-12-23T15:57:11.503Z,96690.69
2022-12-23T15:59:40.032Z,96681.78
2022-12-23T16:05:11.296Z,96685.06
2022-12-23T16:07:42.390Z,96685.03
2022-12-23T16:10:15.136Z,96683.19
2022-12-23T16:12:44.308Z,96676.13
2022-12-23T16:15:22.699Z,96676.31
2022-12-23T16:17:51.556Z,96677.59
2022-12-23T16:20:24.411Z,96672.81
2022-12-23T16:22:54.270Z,96662.72
2022-12-23T16:25:25.538Z,96649.34
2022-12-23T16:27:58.300Z,96659.94
2022-12-23T16:30:31.606Z,96655.72
2022-12-23T16:33:05.009Z,96657.31
2022-12-23T16:35:36.589Z,96660.19
2022-12-23T16:38:13.442Z,96659.41
2022-12-23T16:40:41.743Z,96653.38
2022-12-23T16:43:09.463Z,96655.28
2022-12-23T16:45:38.084Z,96650.97
2022-12-23T16:48:11.105Z,96639.16
2022-12-23T16:50:38.715Z,96638.31
2022-12-23T16:53:06.235Z,96636.84
2022-12-23T16:55:33.696Z,96639.72
2022-12-23T16:58:01.185Z,96646.25
2022-12-23T17:00:28.654Z,96645.72
2022-12-23T17:02:56.440Z,96640.63
2022-12-23T17:05:26.319Z,96638.25
2022-12-23T17:07:56.711Z,96637.97
2022-12-23T17:10:24.225Z,96641.94
2022-12-23T17:12:51.869Z,96641.28
2022-12-23T17:15:22.041Z,96645.38
2022-12-23T17:17:51.215Z,96643.25
2022-12-23T17:20:20.287Z,96643.44
2022-12-23T17:22:51.974Z,96632.09
2022-12-23T17:25:26.316Z,96634.22
2022-12-23T17:27:55.567Z,96630.94
2022-12-23T17:30:24.966Z,96645.72
2022-12-23T17:32:56.317Z,96644.81
2022-12-23T17:35:24.418Z,96640.72
2022-12-23T17:37:54.100Z,96639.28
2022-12-23T17:40:21.634Z,96640.34
2022-12-23T17:42:49.417Z,96644.06
2022-12-23T17:45:25.305Z,96639.69
2022-12-23T17:47:53.497Z,96662.84
2022-12-23T17:50:21.635Z,96656.63
2022-12-23T17:52:49.207Z,96658.03
2022-12-23T17:55:20.698Z,96655.72
2022-12-23T17:57:48.518Z,96656.19
2022-12-23T18:00:26.548Z,96670.91
2022-12-23T18:02:59.159Z,96669.59
2022-12-23T18:05:29.437Z,96665.72
2022-12-23T18:08:02.260Z,96676.06
2022-12-23T18:10:34.532Z,96683.09
2022-12-23T18:13:04.172Z,96675.25
2022-12-23T18:15:34.568Z,96678.47
2022-12-23T18:18:02.472Z,96677.00
2022-12-23T18:20:29.984Z,96681.09
2022-12-23T18:22:59.112Z,96685.25
2022-12-23T18:25:27.819Z,96686.53
2022-12-23T18:27:56.478Z,96691.56
2022-12-23T18:30:24.274Z,96690.31
2022-12-23T18:32:51.749Z,96687.63
2022-12-23T18:35:27.101Z,96677.44
2022-12-23T18:37:54.852Z,96687.84
2022-12-23T18:40:26.722Z,96673.13
2022-12-23T18:42:58.290Z,96668.47
2022-12-23T18:45:30.673Z,96676.84
2022-12-23T18:47:59.153Z,96687.44
2022-12-23T18:50:27.701Z,96690.53
2022-12-23T18:52:55.547Z,96690.25
2022-12-23T18:55:23.261Z,96703.56
2022-12-23T18:57:51.076Z,96709.09
2022-12-23T19:00:23.311Z,96701.50
2022-12-23T19:02:52.334Z,96702.06
2022-12-23T19:05:22.262Z,96707.81
2022-12-23T19:07:50.439Z,96711.09
2022-12-23T19:10:20.631Z,96706.91
2022-12-23T19:12:48.093Z,96722.66
2022-12-23T19:15:15.915Z,96706.56
2022-12-23T19:17:44.708Z,96726.59
2022-12-23T19:20:15.314Z,96731.56
2022-12-23T19:22:42.857Z,96725.56
2022-12-23T19:25:13.177Z,96734.41
2022-12-23T19:27:41.290Z,96733.97
2022-12-23T19:30:12.033Z,96739.03
2022-12-23T19:32:39.586Z,96737.47
2022-12-23T19:35:09.213Z,96738.53
2022-12-23T19:37:38.185Z,96739.69
2022-12-23T19:40:06.878Z,96759.44
2022-12-23T19:42:34.497Z,96758.88
2022-12-23T19:45:02.081Z,96751.41
2022-12-23T19:47:29.559Z,96760.00
2022-12-23T19:49:57.027Z,96770.25
2022-12-23T19:52:25.876Z,96765.03
2022-12-23T19:54:53.876Z,96767.63
2022-12-23T19:57:21.322Z,96772.38
2022-12-23T19:59:48.860Z,96771.94
2022-12-23T20:02:17.569Z,96775.47
2022-12-23T20:04:45.194Z,96780.78
2022-12-23T20:07:12.778Z,96800.81
2022-12-23T20:09:44.070Z,96799.22
2022-12-23T20:12:11.979Z,96792.09
2022-12-23T20:14:41.696Z,96802.06
2022-12-23T20:17:09.169Z,96797.34
2022-12-23T20:19:42.071Z,96804.84
2022-12-23T20:22:13.222Z,96806.44
2022-12-23T20:24:42.129Z,96810.66
2022-12-23T20:27:12.126Z,96801.91
2022-12-23T20:29:41.431Z,96802.06
2022-12-23T20:32:08.978Z,96799.25
2022-12-23T20:34:39.458Z,96810.47
2022-12-23T20:37:08.256Z,96803.63
2022-12-23T20:39:36.241Z,96818.66
2022-12-23T20:42:06.172Z,96829.66
2022-12-23T20:44:35.805Z,96822.72
2022-12-23T20:47:04.725Z,96826.47
2022-12-23T20:49:32.240Z,96821.22
2022-12-23T20:51:59.709Z,96821.28
2022-12-23T20:54:32.583Z,96822.06
2022-12-23T20:57:00.991Z,96818.97
2022-12-23T20:59:30.007Z,96831.03
2022-12-23T21:01:58.912Z,96829.13
2022-12-23T21:04:26.753Z,96825.16
2022-12-23T21:06:54.279Z,96828.69
2022-12-23T21:09:21.751Z,96822.56
2022-12-23T21:11:49.455Z,96824.81
2022-12-23T21:14:17.190Z,96835.78
2022-12-23T21:16:46.405Z,96845.94
2022-12-23T21:19:17.046Z,96873.38
2022-12-23T21:21:44.594Z,96885.94
2022-12-23T21:24:12.574Z,96894.09
2022-12-23T21:26:40.271Z,96914.53
2022-12-23T21:29:10.062Z,96893.47
2022-12-23T21:31:39.830Z,96898.69
2022-12-23T21:34:09.262Z,96909.94
2022-12-23T21:36:39.527Z,96905.72
2022-12-23T21:39:08.977Z,96908.66
2022-12-23T21:41:41.020Z,96920.06
2022-12-23T21:44:09.146Z,96920.44
2022-12-23T21:46:36.645Z,96918.22
2022-12-23T21:49:07.852Z,96921.34
2022-12-23T21:51:40.213Z,96940.97
2022-12-23T21:54:11.259Z,96940.56
2022-12-23T21:56:40.355Z,96940.97
2022-12-23T21:59:09.918Z,96949.63
2022-12-23T22:01:37.399Z,96941.13
2022-12-23T22:04:05.200Z,96950.84
2022-12-23T22:06:37.198Z,96949.47
2022-12-23T22:09:05.901Z,96937.72
2022-12-23T22:11:34.941Z,96951.75
2022-12-23T22:14:04.746Z,96951.97
2022-12-23T22:16:33.181Z,96955.25
2022-12-23T22:19:02.203Z,96953.78
2022-12-23T22:21:31.789Z,96959.44
2022-12-23T22:24:01.078Z,96944.78
2022-12-23T22:26:31.160Z,96958.13
2022-12-23T22:29:00.452Z,96964.56
2022-12-23T22:31:32.717Z,96952.00
2022-12-23T22:34:00.485Z,96964.78
2022-12-23T22:36:28.561Z,96967.47
2022-12-23T22:38:59.595Z,96970.53
2022-12-23T22:41:30.573Z,96981.25
2022-12-23T22:44:03.534Z,96984.16
2022-12-23T22:46:31.497Z,96983.97
2022-12-23T22:48:59.575Z,97000.66
2022-12-23T22:51:29.934Z,97003.75
2022-12-23T22:53:58.213Z,97003.72
2022-12-23T22:56:26.638Z,97000.66
2022-12-23T22:58:55.686Z,97006.63
2022-12-23T23:01:25.176Z,97005.63
2022-12-23T23:03:57.065Z,97020.03
2022-12-23T23:06:26.613Z,97026.63
2022-12-23T23:08:54.784Z,97034.44
2022-12-23T23:11:23.078Z,97034.88
2022-12-23T23:13:50.559Z,97035.88
2022-12-23T23:16:19.390Z,97040.81
2022-12-23T23:18:46.984Z,97037.16
2022-12-23T23:21:15.708Z,97028.28
2022-12-23T23:23:43.063Z,97033.03
2022-12-23T23:26:11.057Z,97045.16
2022-12-23T23:28:39.255Z,97042.69
2022-12-23T23:34:00.635Z,97056.06
2022-12-23T23:36:28.188Z,97062.06
2022-12-23T23:38:55.733Z,97070.28
2022-12-23T23:41:24.270Z,97071.53
2022-12-23T23:43:51.848Z,97081.22
2022-12-23T23:46:19.767Z,97078.94
2022-12-23T23:48:47.256Z,97075.25
2022-12-23T23:51:16.057Z,97080.59
2022-12-23T23:53:43.510Z,97084.28
2022-12-23T23:56:14.075Z,97081.81
2022-12-23T23:58:41.507Z,97087.19
